Foster Falls, Virginia
Current Conditions -  °F | °C
As of 6:15 AM on Sunday 21 Dec 2014 (Local Time) from KHLX Reporting Station
Overcast Overcast  
Wind Chill: 34°   Ceiling: 3000
Heat Index: 34°   Visibility: 10mi
Dew Point: 31°   Wind: 0mph
Humidity: 91%   Direction: NA
Pressure: 30.18"   Gusts: NA
Location:  36.9453°N, 80.9266°W
Report Text: KHLX 211115Z AUTO 00000KT 10SM SCT005 OVC030 01/00 A3018 RMK AO2 T00101003
Loading
Personal Weather Stations






























Interactive Weather Map New forecast layout! Learn more

10-Day Weather Forecast

Advertisements
Track Severe Weather on mobile